sensor_id;sensor_type;location;lat;lon;timestamp;pressure;altitude;pressure_sealevel;temperature;humidity
64683;BME280;51107;47.652;19.016;2023-03-14T00:01:18;99164.88;;;6.40;58.56
64683;BME280;51107;47.652;19.016;2023-03-14T00:03:48;99161.22;;;6.43;59.42
64683;BME280;51107;47.652;19.016;2023-03-14T00:06:17;99153.72;;;6.50;59.49
64683;BME280;51107;47.652;19.016;2023-03-14T00:08:46;99157.13;;;6.40;59.66
64683;BME280;51107;47.652;19.016;2023-03-14T00:11:20;99153.31;;;6.44;58.42
64683;BME280;51107;47.652;19.016;2023-03-14T00:13:50;99152.78;;;6.41;58.77
64683;BME280;51107;47.652;19.016;2023-03-14T00:16:19;99145.13;;;6.59;57.56
64683;BME280;51107;47.652;19.016;2023-03-14T00:18:48;99130.72;;;6.46;58.30
64683;BME280;51107;47.652;19.016;2023-03-14T00:21:16;99133.88;;;6.31;58.36
64683;BME280;51107;47.652;19.016;2023-03-14T00:23:45;99135.81;;;6.19;60.44
64683;BME280;51107;47.652;19.016;2023-03-14T00:26:16;99137.31;;;6.21;60.01
64683;BME280;51107;47.652;19.016;2023-03-14T00:28:45;99133.34;;;6.17;60.92
64683;BME280;51107;47.652;19.016;2023-03-14T00:31:15;99121.38;;;6.16;60.74
64683;BME280;51107;47.652;19.016;2023-03-14T00:33:44;99121.50;;;6.15;60.47
64683;BME280;51107;47.652;19.016;2023-03-14T00:36:15;99113.91;;;6.13;61.67
64683;BME280;51107;47.652;19.016;2023-03-14T00:38:46;99103.13;;;6.18;62.17
64683;BME280;51107;47.652;19.016;2023-03-14T00:41:18;99115.38;;;6.25;59.29
64683;BME280;51107;47.652;19.016;2023-03-14T00:43:47;99103.28;;;6.16;59.67
64683;BME280;51107;47.652;19.016;2023-03-14T00:46:16;99101.09;;;5.72;62.33
64683;BME280;51107;47.652;19.016;2023-03-14T00:48:45;99094.16;;;5.83;63.64
64683;BME280;51107;47.652;19.016;2023-03-14T00:51:14;99097.12;;;5.68;63.36
64683;BME280;51107;47.652;19.016;2023-03-14T00:53:44;99099.72;;;5.58;64.29
64683;BME280;51107;47.652;19.016;2023-03-14T00:56:12;99078.91;;;5.60;64.54
64683;BME280;51107;47.652;19.016;2023-03-14T00:58:41;99091.03;;;5.50;63.91
64683;BME280;51107;47.652;19.016;2023-03-14T01:01:14;99083.56;;;4.96;67.30
64683;BME280;51107;47.652;19.016;2023-03-14T01:03:43;99085.66;;;5.32;64.70
64683;BME280;51107;47.652;19.016;2023-03-14T01:06:15;99082.53;;;5.18;66.42
64683;BME280;51107;47.652;19.016;2023-03-14T01:08:44;99086.94;;;5.47;64.28
64683;BME280;51107;47.652;19.016;2023-03-14T01:11:15;99069.78;;;5.46;64.60
64683;BME280;51107;47.652;19.016;2023-03-14T01:13:45;99073.47;;;4.83;66.82
64683;BME280;51107;47.652;19.016;2023-03-14T01:16:14;99056.72;;;5.08;67.35
64683;BME280;51107;47.652;19.016;2023-03-14T01:18:44;99055.22;;;4.65;67.77
64683;BME280;51107;47.652;19.016;2023-03-14T01:21:16;99050.81;;;4.97;67.98
64683;BME280;51107;47.652;19.016;2023-03-14T01:23:46;99046.66;;;5.15;65.59
64683;BME280;51107;47.652;19.016;2023-03-14T01:26:17;99040.19;;;4.80;67.30
64683;BME280;51107;47.652;19.016;2023-03-14T01:28:50;99029.25;;;4.98;67.62
64683;BME280;51107;47.652;19.016;2023-03-14T01:31:19;99023.81;;;5.01;66.98
64683;BME280;51107;47.652;19.016;2023-03-14T01:33:48;99021.88;;;4.93;66.75
64683;BME280;51107;47.652;19.016;2023-03-14T01:36:17;99024.22;;;5.16;65.93
64683;BME280;51107;47.652;19.016;2023-03-14T01:38:45;99025.19;;;5.15;65.03
64683;BME280;51107;47.652;19.016;2023-03-14T01:41:17;99025.00;;;4.97;66.53
64683;BME280;51107;47.652;19.016;2023-03-14T01:43:48;99017.28;;;5.06;66.43
64683;BME280;51107;47.652;19.016;2023-03-14T01:54:21;98998.28;;;5.07;66.60
64683;BME280;51107;47.652;19.016;2023-03-14T01:56:58;98990.53;;;5.17;66.52
64683;BME280;51107;47.652;19.016;2023-03-14T01:59:31;98983.72;;;5.06;65.38
64683;BME280;51107;47.652;19.016;2023-03-14T02:02:00;98985.78;;;5.03;65.60
64683;BME280;51107;47.652;19.016;2023-03-14T02:04:32;98978.69;;;4.95;64.96
64683;BME280;51107;47.652;19.016;2023-03-14T02:09:34;98952.47;;;5.00;66.46
64683;BME280;51107;47.652;19.016;2023-03-14T02:12:02;98958.03;;;4.85;65.47
64683;BME280;51107;47.652;19.016;2023-03-14T02:14:35;98943.13;;;4.99;66.50
64683;BME280;51107;47.652;19.016;2023-03-14T02:17:05;98950.03;;;5.08;65.97
64683;BME280;51107;47.652;19.016;2023-03-14T02:19:43;98933.19;;;4.94;64.78
64683;BME280;51107;47.652;19.016;2023-03-14T02:22:20;98943.28;;;4.47;67.94
64683;BME280;51107;47.652;19.016;2023-03-14T02:25:06;98942.91;;;4.71;68.24
64683;BME280;51107;47.652;19.016;2023-03-14T02:27:37;98937.28;;;4.36;68.40
64683;BME280;51107;47.652;19.016;2023-03-14T02:30:27;98950.50;;;4.53;69.09
64683;BME280;51107;47.652;19.016;2023-03-14T02:33:11;98930.84;;;4.62;68.41
64683;BME280;51107;47.652;19.016;2023-03-14T02:35:52;98932.22;;;4.75;67.62
64683;BME280;51107;47.652;19.016;2023-03-14T02:40:55;98914.44;;;4.82;67.29
64683;BME280;51107;47.652;19.016;2023-03-14T02:43:24;98917.81;;;4.83;66.74
64683;BME280;51107;47.652;19.016;2023-03-14T02:45:52;98923.12;;;4.81;67.09
64683;BME280;51107;47.652;19.016;2023-03-14T02:48:28;98917.50;;;4.47;68.18
64683;BME280;51107;47.652;19.016;2023-03-14T02:51:00;98912.09;;;4.59;68.63
64683;BME280;51107;47.652;19.016;2023-03-14T02:53:31;98913.88;;;4.69;67.85
64683;BME280;51107;47.652;19.016;2023-03-14T02:56:01;98908.94;;;4.46;67.54
64683;BME280;51107;47.652;19.016;2023-03-14T02:58:30;98899.69;;;4.34;68.90
64683;BME280;51107;47.652;19.016;2023-03-14T03:00:59;98900.81;;;4.51;69.42
64683;BME280;51107;47.652;19.016;2023-03-14T03:03:27;98894.19;;;4.68;67.74
64683;BME280;51107;47.652;19.016;2023-03-14T03:05:56;98886.06;;;4.82;67.34
64683;BME280;51107;47.652;19.016;2023-03-14T03:08:26;98881.13;;;4.79;67.37
64683;BME280;51107;47.652;19.016;2023-03-14T03:10:57;98873.69;;;4.86;67.02
64683;BME280;51107;47.652;19.016;2023-03-14T03:13:27;98875.69;;;4.72;66.62
64683;BME280;51107;47.652;19.016;2023-03-14T03:15:55;98871.75;;;4.68;67.03
64683;BME280;51107;47.652;19.016;2023-03-14T03:18:23;98886.56;;;4.66;67.45
64683;BME280;51107;47.652;19.016;2023-03-14T03:20:52;98887.53;;;4.65;67.03
64683;BME280;51107;47.652;19.016;2023-03-14T03:23:21;98894.13;;;4.29;68.58
64683;BME280;51107;47.652;19.016;2023-03-14T03:25:50;98884.78;;;4.47;68.84
64683;BME280;51107;47.652;19.016;2023-03-14T03:28:19;98893.69;;;4.23;69.12
64683;BME280;51107;47.652;19.016;2023-03-14T03:30:48;98875.53;;;4.35;69.22
64683;BME280;51107;47.652;19.016;2023-03-14T03:33:16;98872.50;;;4.20;69.10
64683;BME280;51107;47.652;19.016;2023-03-14T03:35:46;98875.00;;;4.31;69.84
64683;BME280;51107;47.652;19.016;2023-03-14T03:38:16;98872.37;;;4.21;69.84
64683;BME280;51107;47.652;19.016;2023-03-14T03:40:45;98872.09;;;4.15;69.97
64683;BME280;51107;47.652;19.016;2023-03-14T03:43:14;98864.25;;;4.16;69.95
64683;BME280;51107;47.652;19.016;2023-03-14T03:45:43;98872.87;;;4.05;70.31
64683;BME280;51107;47.652;19.016;2023-03-14T03:48:11;98858.72;;;3.59;72.02
64683;BME280;51107;47.652;19.016;2023-03-14T03:50:46;98859.94;;;3.86;71.17
64683;BME280;51107;47.652;19.016;2023-03-14T03:53:15;98866.06;;;3.95;71.02
64683;BME280;51107;47.652;19.016;2023-03-14T03:55:59;98856.69;;;3.94;70.72
64683;BME280;51107;47.652;19.016;2023-03-14T03:58:29;98849.97;;;4.02;71.22
64683;BME280;51107;47.652;19.016;2023-03-14T04:00:57;98846.78;;;3.89;70.80
64683;BME280;51107;47.652;19.016;2023-03-14T04:03:26;98861.28;;;3.80;71.24
64683;BME280;51107;47.652;19.016;2023-03-14T04:06:00;98859.09;;;3.85;71.63
64683;BME280;51107;47.652;19.016;2023-03-14T04:08:31;98844.31;;;3.78;71.25
64683;BME280;51107;47.652;19.016;2023-03-14T04:11:01;98846.44;;;3.72;71.08
64683;BME280;51107;47.652;19.016;2023-03-14T04:13:30;98843.47;;;3.77;72.42
64683;BME280;51107;47.652;19.016;2023-03-14T04:15:58;98851.88;;;3.69;72.32
64683;BME280;51107;47.652;19.016;2023-03-14T04:18:27;98846.56;;;3.40;72.72
64683;BME280;51107;47.652;19.016;2023-03-14T04:20:58;98852.38;;;3.32;73.08
64683;BME280;51107;47.652;19.016;2023-03-14T04:23:26;98849.72;;;3.22;73.56
64683;BME280;51107;47.652;19.016;2023-03-14T04:25:56;98835.16;;;3.33;73.37
64683;BME280;51107;47.652;19.016;2023-03-14T04:28:25;98846.25;;;3.33;73.37
64683;BME280;51107;47.652;19.016;2023-03-14T04:30:53;98835.09;;;3.23;73.81
64683;BME280;51107;47.652;19.016;2023-03-14T04:33:22;98834.34;;;3.32;73.39
64683;BME280;51107;47.652;19.016;2023-03-14T04:35:54;98831.47;;;3.26;73.41
64683;BME280;51107;47.652;19.016;2023-03-14T04:38:22;98834.59;;;3.08;73.80
64683;BME280;51107;47.652;19.016;2023-03-14T04:40:51;98837.00;;;3.21;72.90
64683;BME280;51107;47.652;19.016;2023-03-14T04:43:20;98849.91;;;3.31;72.78
64683;BME280;51107;47.652;19.016;2023-03-14T04:45:50;98835.81;;;3.56;72.03
64683;BME280;51107;47.652;19.016;2023-03-14T04:48:19;98849.16;;;3.19;73.00
64683;BME280;51107;47.652;19.016;2023-03-14T04:50:48;98820.28;;;3.36;73.06
64683;BME280;51107;47.652;19.016;2023-03-14T04:53:17;98845.62;;;2.99;73.52
64683;BME280;51107;47.652;19.016;2023-03-14T04:55:51;98838.53;;;3.12;73.41
64683;BME280;51107;47.652;19.016;2023-03-14T04:58:20;98833.41;;;2.91;75.09
64683;BME280;51107;47.652;19.016;2023-03-14T05:00:49;98844.34;;;2.72;75.47
64683;BME280;51107;47.652;19.016;2023-03-14T05:03:18;98831.12;;;2.77;76.13
64683;BME280;51107;47.652;19.016;2023-03-14T05:05:47;98842.44;;;2.85;75.38
64683;BME280;51107;47.652;19.016;2023-03-14T05:08:16;98822.25;;;3.02;75.64
64683;BME280;51107;47.652;19.016;2023-03-14T05:10:54;98831.34;;;3.06;75.21
64683;BME280;51107;47.652;19.016;2023-03-14T05:13:24;98811.44;;;3.08;76.13
64683;BME280;51107;47.652;19.016;2023-03-14T05:15:52;98824.56;;;2.84;76.30
64683;BME280;51107;47.652;19.016;2023-03-14T05:18:21;98819.09;;;2.98;76.61
64683;BME280;51107;47.652;19.016;2023-03-14T05:20:50;98825.94;;;2.88;76.79
64683;BME280;51107;47.652;19.016;2023-03-14T05:23:20;98795.56;;;3.03;76.53
64683;BME280;51107;47.652;19.016;2023-03-14T05:25:48;98801.66;;;3.02;76.80
64683;BME280;51107;47.652;19.016;2023-03-14T05:28:18;98796.56;;;3.12;76.72
64683;BME280;51107;47.652;19.016;2023-03-14T05:30:46;98803.44;;;3.32;75.53
64683;BME280;51107;47.652;19.016;2023-03-14T05:33:15;98811.34;;;3.40;76.17
64683;BME280;51107;47.652;19.016;2023-03-14T05:35:44;98800.25;;;3.50;75.61
64683;BME280;51107;47.652;19.016;2023-03-14T05:38:12;98800.84;;;3.63;76.16
64683;BME280;51107;47.652;19.016;2023-03-14T05:40:42;98809.44;;;3.64;75.99
64683;BME280;51107;47.652;19.016;2023-03-14T05:43:12;98793.91;;;3.95;75.41
64683;BME280;51107;47.652;19.016;2023-03-14T05:45:42;98794.22;;;4.11;75.05
64683;BME280;51107;47.652;19.016;2023-03-14T05:48:13;98783.34;;;4.07;74.50
64683;BME280;51107;47.652;19.016;2023-03-14T05:50:41;98795.16;;;4.10;74.03
64683;BME280;51107;47.652;19.016;2023-03-14T05:53:10;98789.91;;;4.31;74.64
64683;BME280;51107;47.652;19.016;2023-03-14T05:55:40;98795.31;;;4.28;73.61
64683;BME280;51107;47.652;19.016;2023-03-14T05:58:09;98796.69;;;4.42;73.09
64683;BME280;51107;47.652;19.016;2023-03-14T06:00:37;98790.72;;;4.61;72.01
64683;BME280;51107;47.652;19.016;2023-03-14T06:03:06;98790.03;;;4.79;72.30
64683;BME280;51107;47.652;19.016;2023-03-14T06:05:36;98793.41;;;4.69;71.86
64683;BME280;51107;47.652;19.016;2023-03-14T06:08:05;98794.75;;;4.93;71.54
64683;BME280;51107;47.652;19.016;2023-03-14T06:10:35;98793.91;;;5.12;72.01
64683;BME280;51107;47.652;19.016;2023-03-14T06:13:04;98787.25;;;5.19;71.24
64683;BME280;51107;47.652;19.016;2023-03-14T06:15:32;98785.00;;;5.34;70.60
64683;BME280;51107;47.652;19.016;2023-03-14T06:18:01;98790.28;;;5.42;70.13
64683;BME280;51107;47.652;19.016;2023-03-14T06:20:30;98788.19;;;5.56;70.22
64683;BME280;51107;47.652;19.016;2023-03-14T06:22:59;98782.13;;;5.75;70.46
64683;BME280;51107;47.652;19.016;2023-03-14T06:25:27;98784.62;;;5.67;69.46
64683;BME280;51107;47.652;19.016;2023-03-14T06:27:56;98791.34;;;5.50;69.54
64683;BME280;51107;47.652;19.016;2023-03-14T06:30:25;98784.47;;;5.68;70.22
64683;BME280;51107;47.652;19.016;2023-03-14T06:32:54;98789.06;;;5.74;69.44
64683;BME280;51107;47.652;19.016;2023-03-14T06:35:23;98795.84;;;5.75;69.89
64683;BME280;51107;47.652;19.016;2023-03-14T06:37:52;98798.91;;;5.99;70.41
64683;BME280;51107;47.652;19.016;2023-03-14T06:40:21;98796.34;;;6.17;70.62
64683;BME280;51107;47.652;19.016;2023-03-14T06:42:50;98798.28;;;6.33;70.50
64683;BME280;51107;47.652;19.016;2023-03-14T06:45:18;98787.94;;;6.51;69.96
64683;BME280;51107;47.652;19.016;2023-03-14T06:47:48;98804.25;;;6.69;69.03
64683;BME280;51107;47.652;19.016;2023-03-14T06:50:16;98806.91;;;6.77;68.82
64683;BME280;51107;47.652;19.016;2023-03-14T06:52:45;98803.47;;;6.95;69.01
64683;BME280;51107;47.652;19.016;2023-03-14T06:55:17;98800.94;;;7.03;67.55
64683;BME280;51107;47.652;19.016;2023-03-14T06:57:49;98804.69;;;7.09;66.78
64683;BME280;51107;47.652;19.016;2023-03-14T07:00:18;98790.53;;;7.21;68.44
64683;BME280;51107;47.652;19.016;2023-03-14T07:02:46;98806.19;;;7.11;66.94
64683;BME280;51107;47.652;19.016;2023-03-14T07:05:15;98800.88;;;6.95;67.14
64683;BME280;51107;47.652;19.016;2023-03-14T07:07:44;98806.66;;;7.07;66.99
64683;BME280;51107;47.652;19.016;2023-03-14T07:10:13;98801.97;;;7.10;66.68
64683;BME280;51107;47.652;19.016;2023-03-14T07:12:43;98779.75;;;7.34;67.54
64683;BME280;51107;47.652;19.016;2023-03-14T07:15:11;98792.13;;;7.48;66.59
64683;BME280;51107;47.652;19.016;2023-03-14T07:17:46;98800.00;;;7.65;67.30
64683;BME280;51107;47.652;19.016;2023-03-14T07:20:17;98784.19;;;7.85;65.77
64683;BME280;51107;47.652;19.016;2023-03-14T07:22:49;98789.75;;;7.98;65.54
64683;BME280;51107;47.652;19.016;2023-03-14T07:25:19;98797.53;;;8.06;65.12
64683;BME280;51107;47.652;19.016;2023-03-14T07:27:48;98793.34;;;8.13;64.12
64683;BME280;51107;47.652;19.016;2023-03-14T07:30:17;98800.19;;;8.23;64.30
64683;BME280;51107;47.652;19.016;2023-03-14T07:32:46;98797.09;;;8.36;65.11
64683;BME280;51107;47.652;19.016;2023-03-14T07:35:15;98789.69;;;8.57;61.72
64683;BME280;51107;47.652;19.016;2023-03-14T07:37:43;98790.84;;;8.71;60.78
64683;BME280;51107;47.652;19.016;2023-03-14T07:40:15;98772.78;;;9.03;61.01
64683;BME280;51107;47.652;19.016;2023-03-14T07:42:43;98774.84;;;9.24;58.64
64683;BME280;51107;47.652;19.016;2023-03-14T07:45:14;98759.00;;;9.50;58.49
64683;BME280;51107;47.652;19.016;2023-03-14T07:47:43;98767.91;;;9.56;56.38
64683;BME280;51107;47.652;19.016;2023-03-14T07:50:11;98759.00;;;9.90;57.25
64683;BME280;51107;47.652;19.016;2023-03-14T07:52:40;98764.34;;;10.19;56.51
64683;BME280;51107;47.652;19.016;2023-03-14T07:55:09;98760.59;;;10.45;56.28
64683;BME280;51107;47.652;19.016;2023-03-14T07:57:37;98758.87;;;10.61;54.78
64683;BME280;51107;47.652;19.016;2023-03-14T08:00:08;98760.69;;;10.75;54.34
64683;BME280;51107;47.652;19.016;2023-03-14T08:02:40;98752.44;;;10.86;53.78
64683;BME280;51107;47.652;19.016;2023-03-14T08:05:09;98745.91;;;10.91;53.04
64683;BME280;51107;47.652;19.016;2023-03-14T08:07:38;98739.28;;;11.18;54.06
64683;BME280;51107;47.652;19.016;2023-03-14T08:10:09;98737.03;;;11.15;52.89
64683;BME280;51107;47.652;19.016;2023-03-14T08:12:38;98733.41;;;11.46;54.55
64683;BME280;51107;47.652;19.016;2023-03-14T08:15:07;98721.78;;;11.63;54.50
64683;BME280;51107;47.652;19.016;2023-03-14T08:17:35;98729.03;;;11.83;53.19
64683;BME280;51107;47.652;19.016;2023-03-14T08:20:08;98724.22;;;11.65;53.04
64683;BME280;51107;47.652;19.016;2023-03-14T08:22:39;98725.94;;;11.94;53.34
64683;BME280;51107;47.652;19.016;2023-03-14T08:25:08;98723.75;;;12.13;51.93
64683;BME280;51107;47.652;19.016;2023-03-14T08:27:37;98719.13;;;12.36;53.01
64683;BME280;51107;47.652;19.016;2023-03-14T08:30:09;98718.88;;;12.53;52.20
64683;BME280;51107;47.652;19.016;2023-03-14T08:32:40;98714.69;;;12.58;50.79
64683;BME280;51107;47.652;19.016;2023-03-14T08:35:08;98713.34;;;12.98;52.17
64683;BME280;51107;47.652;19.016;2023-03-14T08:37:37;98717.44;;;13.42;50.83
64683;BME280;51107;47.652;19.016;2023-03-14T08:40:08;98712.03;;;13.50;50.02
64683;BME280;51107;47.652;19.016;2023-03-14T08:42:39;98702.47;;;13.84;49.39
64683;BME280;51107;47.652;19.016;2023-03-14T08:45:10;98709.31;;;13.92;48.31
64683;BME280;51107;47.652;19.016;2023-03-14T08:47:39;98711.97;;;14.25;48.75
64683;BME280;51107;47.652;19.016;2023-03-14T08:50:09;98697.87;;;14.93;47.76
64683;BME280;51107;47.652;19.016;2023-03-14T08:52:43;98691.97;;;15.63;46.19
64683;BME280;51107;47.652;19.016;2023-03-14T08:55:11;98675.03;;;16.23;44.05
64683;BME280;51107;47.652;19.016;2023-03-14T08:57:40;98661.81;;;15.73;43.34
64683;BME280;51107;47.652;19.016;2023-03-14T09:00:10;98667.50;;;16.02;43.26
64683;BME280;51107;47.652;19.016;2023-03-14T09:02:41;98667.72;;;16.00;43.10
64683;BME280;51107;47.652;19.016;2023-03-14T09:05:12;98654.00;;;16.48;42.65
64683;BME280;51107;47.652;19.016;2023-03-14T09:07:40;98648.22;;;17.02;41.83
64683;BME280;51107;47.652;19.016;2023-03-14T09:10:09;98646.06;;;17.29;41.49
64683;BME280;51107;47.652;19.016;2023-03-14T09:12:40;98641.44;;;16.94;41.09
64683;BME280;51107;47.652;19.016;2023-03-14T09:15:09;98624.75;;;17.49;40.90
64683;BME280;51107;47.652;19.016;2023-03-14T09:17:38;98609.28;;;17.11;40.58
64683;BME280;51107;47.652;19.016;2023-03-14T09:20:07;98618.62;;;17.07;40.97
64683;BME280;51107;47.652;19.016;2023-03-14T09:22:37;98617.78;;;17.25;40.63
64683;BME280;51107;47.652;19.016;2023-03-14T09:25:07;98605.94;;;17.76;40.19
64683;BME280;51107;47.652;19.016;2023-03-14T09:27:35;98603.69;;;17.49;39.90
64683;BME280;51107;47.652;19.016;2023-03-14T09:30:04;98605.69;;;17.66;40.14
64683;BME280;51107;47.652;19.016;2023-03-14T09:32:34;98615.38;;;17.96;39.79
64683;BME280;51107;47.652;19.016;2023-03-14T09:35:02;98603.16;;;18.49;38.85
64683;BME280;51107;47.652;19.016;2023-03-14T09:37:31;98613.84;;;17.76;39.49
64683;BME280;51107;47.652;19.016;2023-03-14T09:40:00;98611.63;;;18.04;39.13
64683;BME280;51107;47.652;19.016;2023-03-14T09:42:29;98607.84;;;18.59;39.10
64683;BME280;51107;47.652;19.016;2023-03-14T09:45:01;98592.25;;;18.22;38.96
64683;BME280;51107;47.652;19.016;2023-03-14T09:47:33;98585.59;;;18.43;38.70
64683;BME280;51107;47.652;19.016;2023-03-14T09:50:15;98574.50;;;18.17;38.94
64683;BME280;51107;47.652;19.016;2023-03-14T09:52:51;98563.22;;;18.57;39.28
64683;BME280;51107;47.652;19.016;2023-03-14T09:55:24;98561.53;;;18.27;39.18
64683;BME280;51107;47.652;19.016;2023-03-14T09:58:03;98556.62;;;17.95;38.92
64683;BME280;51107;47.652;19.016;2023-03-14T10:00:36;98562.34;;;18.40;39.32
64683;BME280;51107;47.652;19.016;2023-03-14T10:05:41;98565.12;;;18.21;38.75
64683;BME280;51107;47.652;19.016;2023-03-14T10:08:11;98559.38;;;18.36;38.86
64683;BME280;51107;47.652;19.016;2023-03-14T10:10:40;98553.97;;;18.19;38.91
64683;BME280;51107;47.652;19.016;2023-03-14T10:15:38;98542.31;;;17.91;39.20
64683;BME280;51107;47.652;19.016;2023-03-14T10:18:13;98545.75;;;18.04;39.19
64683;BME280;51107;47.652;19.016;2023-03-14T10:20:47;98558.69;;;18.05;39.43
64683;BME280;51107;47.652;19.016;2023-03-14T10:26:11;98542.81;;;17.70;40.30
64683;BME280;51107;47.652;19.016;2023-03-14T10:28:44;98531.59;;;17.86;40.71
64683;BME280;51107;47.652;19.016;2023-03-14T10:31:15;98536.31;;;17.60;40.79
64683;BME280;51107;47.652;19.016;2023-03-14T10:34:05;98536.25;;;17.48;40.74
64683;BME280;51107;47.652;19.016;2023-03-14T10:36:35;98519.91;;;17.58;40.91
64683;BME280;51107;47.652;19.016;2023-03-14T10:42:20;98516.16;;;17.66;41.06
64683;BME280;51107;47.652;19.016;2023-03-14T10:44:55;98499.19;;;17.74;40.99
64683;BME280;51107;47.652;19.016;2023-03-14T10:47:26;98502.44;;;18.11;41.07
64683;BME280;51107;47.652;19.016;2023-03-14T10:49:57;98503.78;;;18.38;40.18
64683;BME280;51107;47.652;19.016;2023-03-14T10:52:49;98500.00;;;18.33;39.50
64683;BME280;51107;47.652;19.016;2023-03-14T10:55:40;98484.75;;;18.36;40.16
64683;BME280;51107;47.652;19.016;2023-03-14T10:58:31;98481.34;;;18.64;39.17
64683;BME280;51107;47.652;19.016;2023-03-14T11:10:35;98464.28;;;18.55;38.24
64683;BME280;51107;47.652;19.016;2023-03-14T11:18:46;98429.63;;;19.09;37.72
64683;BME280;51107;47.652;19.016;2023-03-14T11:29:02;98418.59;;;19.46;36.99
64683;BME280;51107;47.652;19.016;2023-03-14T11:31:38;98399.22;;;19.79;37.17
64683;BME280;51107;47.652;19.016;2023-03-14T11:34:47;98399.97;;;19.35;37.31
64683;BME280;51107;47.652;19.016;2023-03-14T11:37:34;98397.38;;;19.41;37.27
64683;BME280;51107;47.652;19.016;2023-03-14T11:43:06;98390.44;;;19.34;37.80
64683;BME280;51107;47.652;19.016;2023-03-14T11:45:39;98381.88;;;19.44;37.23
64683;BME280;51107;47.652;19.016;2023-03-14T11:51:27;98377.56;;;19.38;38.15
64683;BME280;51107;47.652;19.016;2023-03-14T11:56:54;98391.81;;;19.03;38.44
64683;BME280;51107;47.652;19.016;2023-03-14T11:59:38;98377.22;;;18.83;38.62
64683;BME280;51107;47.652;19.016;2023-03-14T12:02:33;98355.63;;;18.70;39.04
64683;BME280;51107;47.652;19.016;2023-03-14T12:13:13;98344.00;;;18.37;38.33
64683;BME280;51107;47.652;19.016;2023-03-14T12:15:58;98346.13;;;18.40;38.88
64683;BME280;51107;47.652;19.016;2023-03-14T12:18:30;98349.50;;;18.35;38.92
64683;BME280;51107;47.652;19.016;2023-03-14T12:21:01;98340.84;;;18.23;38.79
64683;BME280;51107;47.652;19.016;2023-03-14T12:23:57;98342.25;;;18.13;39.28
64683;BME280;51107;47.652;19.016;2023-03-14T12:26:27;98340.22;;;18.04;39.54
64683;BME280;51107;47.652;19.016;2023-03-14T12:29:16;98334.72;;;17.93;39.54
64683;BME280;51107;47.652;19.016;2023-03-14T12:32:20;98328.00;;;17.86;39.06
64683;BME280;51107;47.652;19.016;2023-03-14T12:34:42;98330.19;;;17.77;39.16
64683;BME280;51107;47.652;19.016;2023-03-14T12:37:24;98330.28;;;17.82;38.97
64683;BME280;51107;47.652;19.016;2023-03-14T12:40:15;98325.38;;;17.74;39.32
64683;BME280;51107;47.652;19.016;2023-03-14T12:43:00;98316.81;;;17.66;39.64
64683;BME280;51107;47.652;19.016;2023-03-14T12:45:33;98319.44;;;17.66;38.64
64683;BME280;51107;47.652;19.016;2023-03-14T12:48:15;98314.66;;;17.63;38.55
64683;BME280;51107;47.652;19.016;2023-03-14T12:50:55;98304.91;;;17.64;38.29
64683;BME280;51107;47.652;19.016;2023-03-14T12:59:28;98290.41;;;17.49;37.74
64683;BME280;51107;47.652;19.016;2023-03-14T13:02:17;98301.63;;;17.45;38.08
64683;BME280;51107;47.652;19.016;2023-03-14T13:04:54;98292.91;;;17.44;38.19
64683;BME280;51107;47.652;19.016;2023-03-14T13:07:39;98300.47;;;17.41;38.31
64683;BME280;51107;47.652;19.016;2023-03-14T13:10:31;98289.50;;;17.44;37.93
64683;BME280;51107;47.652;19.016;2023-03-14T13:13:20;98310.31;;;17.34;38.67
64683;BME280;51107;47.652;19.016;2023-03-14T13:15:58;98302.56;;;17.39;38.35
64683;BME280;51107;47.652;19.016;2023-03-14T13:18:37;98304.25;;;17.45;37.88
64683;BME280;51107;47.652;19.016;2023-03-14T13:23:40;98299.88;;;17.51;37.62
64683;BME280;51107;47.652;19.016;2023-03-14T13:26:13;98314.78;;;17.45;38.17
64683;BME280;51107;47.652;19.016;2023-03-14T13:28:42;98311.22;;;17.39;38.32
64683;BME280;51107;47.652;19.016;2023-03-14T13:31:23;98301.41;;;17.35;38.49
64683;BME280;51107;47.652;19.016;2023-03-14T13:34:00;98309.97;;;17.42;38.02
64683;BME280;51107;47.652;19.016;2023-03-14T13:36:29;98317.88;;;17.42;37.85
64683;BME280;51107;47.652;19.016;2023-03-14T13:38:59;98316.25;;;17.41;38.58
64683;BME280;51107;47.652;19.016;2023-03-14T13:41:30;98325.66;;;17.48;38.03
64683;BME280;51107;47.652;19.016;2023-03-14T13:44:13;98323.38;;;17.52;38.07
64683;BME280;51107;47.652;19.016;2023-03-14T13:46:43;98321.28;;;17.54;38.01
64683;BME280;51107;47.652;19.016;2023-03-14T13:49:22;98308.66;;;17.68;37.80
64683;BME280;51107;47.652;19.016;2023-03-14T13:51:52;98322.88;;;17.67;38.18
64683;BME280;51107;47.652;19.016;2023-03-14T13:54:21;98324.16;;;17.64;38.50
64683;BME280;51107;47.652;19.016;2023-03-14T13:57:07;98324.34;;;17.63;38.30
64683;BME280;51107;47.652;19.016;2023-03-14T13:59:36;98327.91;;;17.69;38.58
64683;BME280;51107;47.652;19.016;2023-03-14T14:02:12;98325.00;;;17.82;38.03
64683;BME280;51107;47.652;19.016;2023-03-14T14:04:46;98323.28;;;17.88;37.82
64683;BME280;51107;47.652;19.016;2023-03-14T14:07:16;98321.22;;;17.90;38.77
64683;BME280;51107;47.652;19.016;2023-03-14T14:09:51;98316.97;;;17.89;37.67
64683;BME280;51107;47.652;19.016;2023-03-14T14:12:27;98330.38;;;17.87;37.15
64683;BME280;51107;47.652;19.016;2023-03-14T14:15:04;98326.75;;;17.76;38.08
64683;BME280;51107;47.652;19.016;2023-03-14T14:17:41;98330.75;;;17.79;37.72
64683;BME280;51107;47.652;19.016;2023-03-14T14:20:38;98321.16;;;17.73;37.86
64683;BME280;51107;47.652;19.016;2023-03-14T14:23:11;98322.88;;;17.67;37.37
64683;BME280;51107;47.652;19.016;2023-03-14T14:25:43;98329.53;;;17.58;38.35
64683;BME280;51107;47.652;19.016;2023-03-14T14:36:28;98315.13;;;17.48;38.60
64683;BME280;51107;47.652;19.016;2023-03-14T14:38:59;98310.31;;;17.34;40.81
64683;BME280;51107;47.652;19.016;2023-03-14T14:41:30;98302.91;;;17.30;39.95